< < Back
Terminal Aerodrome Forecast


Current Version              Previous Versions:   1  2  3  4  5  6  7  8  9  

Terminal Aerodrome Forecast

894
FTUS44 KBMX 300520
TAFANB
TAF
KANB 300520Z 3006/0106 19003KT P6SM SCT250
     FM301200 23006KT P6SM SCT050
     FM301500 25010KT P6SM VCTS BKN050CB
     FM302100 25012KT P6SM SCT060=



Latest METAR

576
SAUS70 KWBC 300700 RRF
MTRANB
METAR KANB 300653Z AUTO 00000KT 10SM SCT050 21/18 A3001 RMK AO2 SLP151
T02110183


USA.gov is the U.S. government's official web portal to all federal, state and local government web resources and services.